createdAt,value
2018-03-01T00:01:29.834Z,-7.30
2018-03-01T00:03:59.706Z,-7.30
2018-03-01T00:06:28.767Z,-7.30
2018-03-01T00:08:57.832Z,-7.30
2018-03-01T00:11:26.925Z,-7.30
2018-03-01T00:13:56.796Z,-7.30
2018-03-01T00:16:25.847Z,-7.30
2018-03-01T00:18:55.690Z,-7.40
2018-03-01T00:21:24.758Z,-7.40
2018-03-01T00:23:54.607Z,-7.50
2018-03-01T00:26:23.693Z,-7.50
2018-03-01T00:28:52.785Z,-7.40
2018-03-01T00:31:21.869Z,-7.40
2018-03-01T00:33:51.011Z,-7.30
2018-03-01T00:36:20.232Z,-7.30
2018-03-01T00:38:49.326Z,-7.30
2018-03-01T00:41:18.402Z,-7.40
2018-03-01T00:43:47.508Z,-7.40
2018-03-01T00:46:16.617Z,-7.50
2018-03-01T00:48:45.726Z,-7.40
2018-03-01T00:51:16.504Z,-7.40
2018-03-01T00:53:45.580Z,-7.40
2018-03-01T00:56:14.671Z,-7.40
2018-03-01T00:58:43.751Z,-7.40
2018-03-01T01:01:12.851Z,-7.40
2018-03-01T01:03:42.674Z,-7.40
2018-03-01T01:06:11.782Z,-7.40
2018-03-01T01:08:40.843Z,-7.40
2018-03-01T01:11:09.953Z,-7.30
2018-03-01T01:13:39.054Z,-7.30
2018-03-01T01:16:08.131Z,-7.40
2018-03-01T01:18:37.969Z,-7.40
2018-03-01T01:21:07.026Z,-7.40
2018-03-01T01:23:36.857Z,-7.40
2018-03-01T01:26:05.915Z,-7.50
2018-03-01T01:28:34.990Z,-7.50
2018-03-01T01:31:04.079Z,-7.50
2018-03-01T01:33:33.152Z,-7.40
2018-03-01T01:36:02.226Z,-7.40
2018-03-01T01:38:31.280Z,-7.50
2018-03-01T01:41:00.368Z,-7.40
2018-03-01T01:43:29.467Z,-7.40
2018-03-01T01:45:58.530Z,-7.50
2018-03-01T01:48:27.668Z,-7.50
2018-03-01T01:51:04.414Z,-7.50
2018-03-01T01:53:34.231Z,-7.60
2018-03-01T01:56:03.313Z,-7.60
2018-03-01T01:58:32.367Z,-7.60
2018-03-01T02:01:02.222Z,-7.50
2018-03-01T02:03:31.301Z,-7.50
2018-03-01T02:06:00.351Z,-7.50
2018-03-01T02:08:30.203Z,-7.50
2018-03-01T02:10:59.254Z,-7.60
2018-03-01T02:13:29.104Z,-7.50
2018-03-01T02:15:58.173Z,-7.60
2018-03-01T02:18:27.254Z,-7.60
2018-03-01T02:20:56.300Z,-7.50
2018-03-01T02:23:25.398Z,-7.50
2018-03-01T02:25:54.472Z,-7.50
2018-03-01T02:28:24.416Z,-7.50
2018-03-01T02:30:53.470Z,-7.50
2018-03-01T02:33:22.552Z,-7.50
2018-03-01T02:35:51.613Z,-7.50
2018-03-01T02:38:20.705Z,-7.50
2018-03-01T02:40:49.773Z,-7.60
2018-03-01T02:43:18.843Z,-7.60
2018-03-01T02:45:47.979Z,-7.50
2018-03-01T02:48:17.033Z,-7.60
2018-03-01T02:50:46.890Z,-7.50
2018-03-01T02:53:15.944Z,-7.60
2018-03-01T02:55:45.024Z,-7.50
2018-03-01T02:58:14.865Z,-7.50
2018-03-01T03:00:43.939Z,-7.50
2018-03-01T03:03:13.788Z,-7.50
2018-03-01T03:05:42.868Z,-7.50
2018-03-01T03:08:11.954Z,-7.50
2018-03-01T03:10:41.068Z,-7.50
2018-03-01T03:13:10.868Z,-7.50
2018-03-01T03:15:39.926Z,-7.50
2018-03-01T03:18:09.011Z,-7.50
2018-03-01T03:20:38.073Z,-7.50
2018-03-01T03:23:07.153Z,-7.50
2018-03-01T03:25:36.262Z,-7.50
2018-03-01T03:28:05.307Z,-7.50
2018-03-01T03:30:34.539Z,-7.50
2018-03-01T03:33:03.596Z,-7.50
2018-03-01T03:35:32.655Z,-7.50
2018-03-01T03:38:01.772Z,-7.50
2018-03-01T03:40:30.825Z,-7.50
2018-03-01T03:42:59.891Z,-7.50
2018-03-01T03:45:29.747Z,-7.50
2018-03-01T03:47:58.795Z,-7.60
2018-03-01T03:50:27.859Z,-7.50
2018-03-01T03:52:56.990Z,-7.50
2018-03-01T03:55:26.811Z,-7.60
2018-03-01T03:57:55.876Z,-7.60
2018-03-01T04:00:25.000Z,-7.70
2018-03-01T04:02:54.059Z,-7.70
2018-03-01T04:05:23.119Z,-7.70
2018-03-01T04:07:52.248Z,-7.60
2018-03-01T04:10:21.307Z,-7.60
2018-03-01T04:12:51.144Z,-7.60
2018-03-01T04:15:20.266Z,-7.60
2018-03-01T04:17:50.183Z,-7.50
2018-03-01T04:20:19.232Z,-7.50
2018-03-01T04:22:48.451Z,-7.50
2018-03-01T04:25:17.510Z,-7.50
2018-03-01T04:27:46.570Z,-7.50
2018-03-01T04:30:16.423Z,-7.70
2018-03-01T04:32:45.489Z,-7.70
2018-03-01T04:35:14.583Z,-7.70
2018-03-01T04:37:43.658Z,-7.70
2018-03-01T04:40:12.732Z,-7.60
2018-03-01T04:42:41.839Z,-7.60
2018-03-01T04:45:11.294Z,-7.60
2018-03-01T04:47:40.405Z,-7.60
2018-03-01T04:50:09.495Z,-7.60
2018-03-01T04:52:38.592Z,-7.60
2018-03-01T04:55:07.628Z,-7.60
2018-03-01T04:57:37.502Z,-7.60
2018-03-01T05:00:06.616Z,-7.60
2018-03-01T05:02:35.675Z,-7.60
2018-03-01T05:05:04.818Z,-7.50
2018-03-01T05:07:33.908Z,-7.50
2018-03-01T05:10:02.967Z,-7.50
2018-03-01T05:12:32.071Z,-7.50
2018-03-01T05:15:01.156Z,-7.40
2018-03-01T05:17:30.988Z,-7.40
2018-03-01T05:20:01.073Z,-7.50
2018-03-01T05:22:30.159Z,-7.50
2018-03-01T05:24:59.261Z,-7.50
2018-03-01T05:27:28.337Z,-7.50
2018-03-01T05:29:57.408Z,-7.50
2018-03-01T05:32:26.490Z,-7.50
2018-03-01T05:34:55.551Z,-7.50
2018-03-01T05:37:24.670Z,-7.50
2018-03-01T05:39:53.716Z,-7.50
2018-03-01T05:42:22.808Z,-7.50
2018-03-01T05:44:51.919Z,-7.50
2018-03-01T05:47:20.974Z,-7.50
2018-03-01T05:49:50.834Z,-7.70
2018-03-01T05:52:19.894Z,-7.70
2018-03-01T05:54:49.704Z,-7.90
2018-03-01T05:57:19.590Z,-7.90
2018-03-01T05:59:49.428Z,-8.00
2018-03-01T06:02:19.290Z,-7.90
2018-03-01T06:04:48.420Z,-7.90
2018-03-01T06:07:17.488Z,-7.90
2018-03-01T06:09:46.539Z,-7.80
2018-03-01T06:12:15.609Z,-7.80
2018-03-01T06:14:44.711Z,-7.80
2018-03-01T06:17:14.560Z,-7.80
2018-03-01T06:19:43.646Z,-7.80
2018-03-01T06:22:12.703Z,-7.80
2018-03-01T06:24:41.852Z,-7.70
2018-03-01T06:27:10.929Z,-7.60
2018-03-01T06:29:40.232Z,-7.60
2018-03-01T06:32:09.307Z,-7.50
2018-03-01T06:34:39.131Z,-7.40
2018-03-01T06:37:08.299Z,-7.40
2018-03-01T06:39:37.346Z,-7.40
2018-03-01T06:42:06.492Z,-7.40
2018-03-01T06:44:35.621Z,-7.30
2018-03-01T06:47:04.689Z,-7.40
2018-03-01T06:49:34.526Z,-7.40
2018-03-01T06:52:03.832Z,-7.40
2018-03-01T06:54:32.931Z,-7.30
2018-03-01T06:57:01.994Z,-7.20
2018-03-01T06:59:31.897Z,-7.30
2018-03-01T07:02:00.978Z,-7.30
2018-03-01T07:04:30.046Z,-7.30
2018-03-01T07:06:59.195Z,-7.30
2018-03-01T07:09:29.045Z,-7.40
2018-03-01T07:11:58.124Z,-7.40
2018-03-01T07:14:27.316Z,-7.40
2018-03-01T07:16:56.431Z,-7.30
2018-03-01T07:19:26.223Z,-7.20
2018-03-01T07:21:55.307Z,-7.20
2018-03-01T07:24:25.120Z,-7.10
2018-03-01T07:26:54.992Z,-7.00
2018-03-01T07:29:24.051Z,-7.00
2018-03-01T07:31:53.180Z,-6.90
2018-03-01T07:34:22.449Z,-6.80
2018-03-01T07:36:51.552Z,-6.60
2018-03-01T07:39:20.620Z,-6.60
2018-03-01T07:41:49.745Z,-6.60
2018-03-01T07:44:18.799Z,-6.50
2018-03-01T07:46:48.641Z,-6.60
2018-03-01T07:49:17.762Z,-6.60
2018-03-01T07:51:46.815Z,-6.70
2018-03-01T07:54:15.872Z,-6.70
2018-03-01T07:56:45.425Z,-6.70
2018-03-01T07:59:14.477Z,-6.50
2018-03-01T08:01:43.535Z,-6.40
2018-03-01T08:04:12.669Z,-6.40
2018-03-01T08:06:41.723Z,-6.50
2018-03-01T08:09:10.776Z,-6.30
2018-03-01T08:11:39.895Z,-6.30
2018-03-01T08:14:08.943Z,-6.30
2018-03-01T08:16:38.003Z,-6.30
2018-03-01T08:19:08.024Z,-6.30
2018-03-01T08:21:37.587Z,-6.20
2018-03-01T08:24:07.447Z,-6.30
2018-03-01T08:26:36.567Z,-6.30
2018-03-01T08:29:05.631Z,-6.20
2018-03-01T08:31:34.697Z,-6.10
2018-03-01T08:34:04.965Z,-6.00
2018-03-01T08:36:34.074Z,-6.00
2018-03-01T08:39:03.131Z,-5.80
2018-03-01T08:41:32.278Z,-5.90
2018-03-01T08:44:01.324Z,-5.90
2018-03-01T08:46:30.388Z,-5.90
2018-03-01T08:48:59.536Z,-5.70
2018-03-01T08:51:28.577Z,-5.60
2018-03-01T08:53:57.673Z,-5.40
2018-03-01T08:56:26.904Z,-5.30
2018-03-01T08:58:55.959Z,-5.30
2018-03-01T09:01:25.832Z,-5.00
2018-03-01T09:03:54.885Z,-5.00
2018-03-01T09:06:23.928Z,-4.80
2018-03-01T09:08:52.985Z,-4.60
2018-03-01T09:11:22.073Z,-4.60
2018-03-01T09:13:51.248Z,-4.80
2018-03-01T09:16:20.257Z,-4.80
2018-03-01T09:18:49.310Z,-4.80
2018-03-01T09:21:18.393Z,-4.80
2018-03-01T09:23:47.465Z,-4.70
2018-03-01T09:26:16.514Z,-4.60
2018-03-01T09:28:45.603Z,-4.50
2018-03-01T09:31:15.427Z,-4.40
2018-03-01T09:33:44.554Z,-4.50
2018-03-01T09:36:13.647Z,-4.50
2018-03-01T09:38:42.703Z,-4.40
2018-03-01T09:41:12.536Z,-4.30
2018-03-01T09:43:41.623Z,-4.30
2018-03-01T09:46:11.851Z,-4.50
2018-03-01T09:48:40.912Z,-4.50
2018-03-01T09:51:15.562Z,-4.60
2018-03-01T09:53:44.651Z,-4.60
2018-03-01T09:56:13.753Z,-4.60
2018-03-01T09:58:43.019Z,-4.60
2018-03-01T10:01:12.085Z,-4.50
2018-03-01T10:03:41.136Z,-4.40
2018-03-01T10:06:10.219Z,-4.30
2018-03-01T10:08:40.038Z,-4.10
2018-03-01T10:11:09.260Z,-4.10
2018-03-01T10:13:38.331Z,-4.00
2018-03-01T10:16:08.155Z,-3.90
2018-03-01T10:18:37.243Z,-4.00
2018-03-01T10:21:06.295Z,-4.00
2018-03-01T10:23:35.399Z,-3.90
2018-03-01T10:26:04.485Z,-4.00
2018-03-01T10:28:39.461Z,-4.00
2018-03-01T10:31:08.512Z,-4.20
2018-03-01T10:33:43.126Z,-4.30
2018-03-01T10:36:12.181Z,-4.50
2018-03-01T10:38:41.270Z,-4.70
2018-03-01T10:41:11.123Z,-5.20
2018-03-01T10:43:40.203Z,-5.20
2018-03-01T10:46:09.286Z,-5.20
2018-03-01T10:48:38.355Z,-5.30
2018-03-01T10:51:08.258Z,-5.40
2018-03-01T10:53:37.300Z,-5.40
2018-03-01T10:56:06.380Z,-5.40
2018-03-01T10:58:35.433Z,-5.20
2018-03-01T11:01:19.126Z,-5.00
2018-03-01T11:03:48.177Z,-4.80
2018-03-01T11:06:18.001Z,-4.60
2018-03-01T11:08:47.101Z,-4.60
2018-03-01T11:11:16.157Z,-4.60
2018-03-01T11:13:45.434Z,-4.50
2018-03-01T11:16:14.552Z,-4.40
2018-03-01T11:18:43.609Z,-4.30
2018-03-01T11:21:12.680Z,-4.10
2018-03-01T11:23:41.747Z,-4.00
2018-03-01T11:26:11.582Z,-4.10
2018-03-01T11:28:40.678Z,-4.10
2018-03-01T11:31:09.749Z,-4.00
2018-03-01T11:33:38.842Z,-4.00
2018-03-01T11:36:07.902Z,-3.90
2018-03-01T11:38:36.975Z,-3.90
2018-03-01T11:41:06.061Z,-3.90
2018-03-01T11:43:35.138Z,-3.80
2018-03-01T11:46:04.992Z,-3.70
2018-03-01T11:48:34.070Z,-3.70
2018-03-01T11:51:03.147Z,-3.60
2018-03-01T11:53:32.215Z,-3.50
2018-03-01T11:56:01.388Z,-3.40
2018-03-01T11:58:30.450Z,-3.20
2018-03-01T12:00:59.505Z,-2.70
2018-03-01T12:03:28.581Z,-2.50
2018-03-01T12:05:57.687Z,-2.20
2018-03-01T12:08:26.794Z,-2.20
2018-03-01T12:10:56.615Z,-2.20
2018-03-01T12:13:26.479Z,-2.30
2018-03-01T12:15:55.526Z,-2.30
2018-03-01T12:18:25.518Z,-1.90
2018-03-01T12:20:54.558Z,-1.90
2018-03-01T12:23:23.615Z,-1.90
2018-03-01T12:25:52.728Z,-1.70
2018-03-01T12:28:22.531Z,-1.70
2018-03-01T12:30:52.403Z,-1.40
2018-03-01T12:33:21.472Z,-1.40
2018-03-01T12:35:50.543Z,-1.10
2018-03-01T12:38:19.630Z,-0.50
2018-03-01T12:40:49.491Z,-0.20
2018-03-01T12:43:18.527Z,-0.30
2018-03-01T12:45:48.364Z,-0.20
2018-03-01T12:48:17.439Z,-0.20
2018-03-01T12:50:47.265Z,-0.80
2018-03-01T12:53:16.352Z,-0.80
2018-03-01T12:55:46.196Z,-1.30
2018-03-01T12:58:15.276Z,-1.30
2018-03-01T13:00:44.333Z,-1.40
2018-03-01T13:03:13.417Z,-1.40
2018-03-01T13:05:42.511Z,-1.40
2018-03-01T13:08:11.599Z,-1.60
2018-03-01T13:10:43.046Z,-1.80
2018-03-01T13:13:12.106Z,-2.00
2018-03-01T13:15:41.207Z,-2.10
2018-03-01T13:18:10.265Z,-2.30
2018-03-01T13:20:40.093Z,-2.70
2018-03-01T13:23:09.976Z,-2.90
2018-03-01T13:25:39.046Z,-2.90
2018-03-01T13:28:08.125Z,-2.90
2018-03-01T13:30:38.156Z,-2.90
2018-03-01T13:33:19.821Z,-2.90
2018-03-01T13:35:48.958Z,-2.90
2018-03-01T13:38:18.009Z,-2.80
2018-03-01T13:40:47.094Z,-2.80
2018-03-01T13:43:16.471Z,-2.80
2018-03-01T13:45:46.503Z,-2.70
2018-03-01T13:48:16.324Z,-2.60
2018-03-01T13:50:45.419Z,-2.60
2018-03-01T13:53:14.486Z,-2.60
2018-03-01T13:55:43.539Z,-2.70
2018-03-01T13:58:12.643Z,-2.80
2018-03-01T14:00:41.747Z,-2.90
2018-03-01T14:03:10.815Z,-3.00
2018-03-01T14:05:40.718Z,-2.90
2018-03-01T14:08:09.779Z,-2.90
2018-03-01T14:10:39.646Z,-3.40
2018-03-01T14:13:14.303Z,-3.40
2018-03-01T14:15:43.391Z,-3.50
2018-03-01T14:18:12.444Z,-3.60
2018-03-01T14:34:04.524Z,-3.80
2018-03-01T14:36:33.589Z,-3.80
2018-03-01T14:39:02.675Z,-3.70
2018-03-01T14:41:31.781Z,-3.80
2018-03-01T14:44:00.867Z,-3.80
2018-03-01T14:46:29.949Z,-3.80
2018-03-01T14:48:59.020Z,-3.70
2018-03-01T14:51:28.077Z,-3.70
2018-03-01T14:53:57.149Z,-3.70
2018-03-01T14:56:26.216Z,-3.60
2018-03-01T14:58:55.297Z,-3.60
2018-03-01T15:01:24.395Z,-3.70
2018-03-01T15:03:53.459Z,-3.80
2018-03-01T15:06:22.539Z,-3.80
2018-03-01T15:08:51.672Z,-3.80
2018-03-01T15:11:21.489Z,-3.80
2018-03-01T15:13:50.657Z,-3.80
2018-03-01T15:16:20.508Z,-4.00
2018-03-01T15:18:49.575Z,-4.00
2018-03-01T15:21:18.655Z,-4.10
2018-03-01T15:23:48.186Z,-4.20
2018-03-01T15:26:18.005Z,-4.30
2018-03-01T15:28:47.069Z,-4.30
2018-03-01T15:31:16.334Z,-4.30
2018-03-01T15:33:45.460Z,-4.30
2018-03-01T15:36:14.476Z,-4.20
2018-03-01T15:38:44.686Z,-4.20
2018-03-01T15:41:13.740Z,-4.30
2018-03-01T15:43:42.792Z,-4.20
2018-03-01T15:46:12.135Z,-4.20
2018-03-01T15:48:41.193Z,-4.20
2018-03-01T15:51:10.270Z,-4.20
2018-03-01T15:53:40.219Z,-4.30
2018-03-01T15:56:09.315Z,-4.30
2018-03-01T15:58:38.375Z,-4.30
2018-03-01T16:01:08.259Z,-4.40
2018-03-01T16:03:37.301Z,-4.40
2018-03-01T16:09:26.389Z,-4.50
2018-03-01T16:11:55.480Z,-4.60
2018-03-01T16:14:24.547Z,-4.70
2018-03-01T16:16:54.375Z,-4.90
2018-03-01T16:19:23.460Z,-5.00
2018-03-01T16:21:53.312Z,-4.90
2018-03-01T16:24:22.422Z,-5.00
2018-03-01T16:26:51.466Z,-5.00
2018-03-01T16:29:21.311Z,-5.00
2018-03-01T16:31:51.002Z,-5.00
2018-03-01T16:34:20.083Z,-5.00
2018-03-01T16:36:49.903Z,-5.10
2018-03-01T16:39:19.004Z,-5.10
2018-03-01T16:41:48.063Z,-5.20
2018-03-01T16:44:17.168Z,-5.20
2018-03-01T16:46:46.994Z,-5.30
2018-03-01T16:49:16.936Z,-5.40
2018-03-01T16:51:46.005Z,-5.40
2018-03-01T16:54:15.861Z,-5.40
2018-03-01T16:56:45.708Z,-5.40
2018-03-01T16:59:14.770Z,-5.50
2018-03-01T17:01:43.881Z,-5.50
2018-03-01T17:04:12.980Z,-5.50
2018-03-01T17:06:42.082Z,-5.50
2018-03-01T17:09:11.097Z,-5.50
2018-03-01T17:11:40.974Z,-5.60
2018-03-01T17:14:10.047Z,-5.60
2018-03-01T17:16:39.099Z,-5.60
2018-03-01T17:19:08.964Z,-5.60
2018-03-01T17:21:38.041Z,-5.60
2018-03-01T17:24:07.107Z,-5.60
2018-03-01T17:26:36.170Z,-5.60
2018-03-01T17:29:05.263Z,-5.60
2018-03-01T17:31:34.347Z,-5.60
2018-03-01T17:34:03.395Z,-5.60
2018-03-01T17:36:32.501Z,-5.60
2018-03-01T17:39:01.565Z,-5.60
2018-03-01T17:41:31.529Z,-5.60
2018-03-01T17:44:00.580Z,-5.70
2018-03-01T17:46:30.417Z,-5.60
2018-03-01T17:48:59.507Z,-5.60
2018-03-01T17:51:28.573Z,-5.60
2018-03-01T17:53:58.453Z,-5.60
2018-03-01T17:56:27.563Z,-5.60
2018-03-01T17:58:56.691Z,-5.70
2018-03-01T18:01:26.550Z,-5.70
2018-03-01T18:03:55.601Z,-5.70
2018-03-01T18:06:25.476Z,-5.70
2018-03-01T18:08:54.578Z,-5.70
2018-03-01T18:11:23.683Z,-5.70
2018-03-01T18:13:52.788Z,-5.70
2018-03-01T18:16:21.899Z,-5.70
2018-03-01T18:18:50.986Z,-5.70
2018-03-01T18:21:20.807Z,-5.60
2018-03-01T18:23:49.897Z,-5.70
2018-03-01T18:26:18.994Z,-5.70
2018-03-01T18:28:48.074Z,-5.70
2018-03-01T18:31:17.171Z,-5.70
2018-03-01T18:33:47.026Z,-5.70
2018-03-01T18:36:16.101Z,-5.80
2018-03-01T18:38:45.172Z,-5.80
2018-03-01T18:41:15.000Z,-5.70
2018-03-01T18:43:44.908Z,-5.80
2018-03-01T18:46:15.735Z,-5.70
2018-03-01T18:48:45.601Z,-5.70
2018-03-01T18:51:14.732Z,-5.70
2018-03-01T18:53:43.825Z,-5.70
2018-03-01T18:56:12.917Z,-5.70
2018-03-01T18:58:42.064Z,-5.70
2018-03-01T19:01:11.128Z,-5.70
2018-03-01T19:03:40.981Z,-5.80
2018-03-01T19:06:10.022Z,-5.80
2018-03-01T19:08:39.909Z,-5.80
2018-03-01T19:11:08.988Z,-5.80
2018-03-01T19:13:38.060Z,-5.80
2018-03-01T19:16:07.145Z,-5.80
2018-03-01T19:18:36.237Z,-5.80
2018-03-01T19:21:05.342Z,-5.80
2018-03-01T19:23:34.427Z,-5.90
2018-03-01T19:26:03.531Z,-5.80
2018-03-01T19:28:32.608Z,-5.80
2018-03-01T19:31:02.568Z,-5.80
2018-03-01T19:33:31.600Z,-5.90
2018-03-01T19:36:01.504Z,-5.80
2018-03-01T19:38:30.622Z,-5.80
2018-03-01T19:40:59.709Z,-5.80
2018-03-01T19:43:28.790Z,-5.90
2018-03-01T19:45:57.876Z,-5.90
2018-03-01T19:48:27.800Z,-6.00
2018-03-01T19:50:56.924Z,-6.00
2018-03-01T19:53:26.742Z,-5.90
2018-03-01T19:55:55.846Z,-5.90
2018-03-01T19:58:24.908Z,-5.90
2018-03-01T20:00:54.031Z,-5.90
2018-03-01T20:03:23.129Z,-5.80
2018-03-01T20:05:52.197Z,-5.80
2018-03-01T20:08:22.876Z,-5.90
2018-03-01T20:10:52.034Z,-5.80
2018-03-01T20:13:21.226Z,-5.90
2018-03-01T20:15:50.419Z,-5.90
2018-03-01T20:18:20.250Z,-5.90
2018-03-01T20:20:50.106Z,-5.90
2018-03-01T20:23:19.167Z,-5.90
2018-03-01T20:25:48.239Z,-5.90
2018-03-01T20:28:18.116Z,-5.90
2018-03-01T20:30:47.176Z,-5.90
2018-03-01T20:33:16.229Z,-5.90
2018-03-01T20:35:45.664Z,-5.90
2018-03-01T20:38:14.683Z,-5.90
2018-03-01T20:40:43.850Z,-5.90
2018-03-01T20:43:13.735Z,-5.90
2018-03-01T20:45:42.806Z,-5.90
2018-03-01T20:48:11.870Z,-5.90
2018-03-01T20:50:41.023Z,-5.90
2018-03-01T20:53:10.100Z,-5.90
2018-03-01T20:55:39.158Z,-5.90
2018-03-01T20:58:08.560Z,-5.90
2018-03-01T21:00:37.607Z,-5.90
2018-03-01T21:03:06.728Z,-5.90
2018-03-01T21:05:35.780Z,-5.90
2018-03-01T21:08:04.864Z,-5.90
2018-03-01T21:10:33.931Z,-6.00
2018-03-01T21:13:03.027Z,-6.00
2018-03-01T21:15:32.201Z,-5.90
2018-03-01T21:18:02.049Z,-6.00
2018-03-01T21:20:31.126Z,-6.00
2018-03-01T21:23:00.228Z,-6.00
2018-03-01T21:25:29.292Z,-6.00
2018-03-01T21:27:59.163Z,-6.00
2018-03-01T21:30:28.242Z,-6.00
2018-03-01T21:32:57.314Z,-6.00
2018-03-01T21:35:27.165Z,-5.90
2018-03-01T21:37:56.219Z,-6.00
2018-03-01T21:40:25.316Z,-6.00
2018-03-01T21:42:54.376Z,-5.90
2018-03-01T21:45:23.505Z,-5.90
2018-03-01T21:47:55.104Z,-5.90
2018-03-01T21:50:24.195Z,-5.90
2018-03-01T21:52:53.264Z,-5.90
2018-03-01T21:55:22.366Z,-5.90
2018-03-01T21:57:51.426Z,-5.90
2018-03-01T22:00:20.519Z,-5.90
2018-03-01T22:02:50.362Z,-5.90
2018-03-01T22:05:19.446Z,-5.90
2018-03-01T22:07:48.535Z,-5.90
2018-03-01T22:10:17.583Z,-5.90
2018-03-01T22:12:46.718Z,-5.90
2018-03-01T22:15:18.455Z,-5.90
2018-03-01T22:17:48.576Z,-5.90
2018-03-01T22:20:18.415Z,-5.80
2018-03-01T22:22:47.465Z,-5.90
2018-03-01T22:25:16.599Z,-5.90
2018-03-01T22:27:45.917Z,-5.90
2018-03-01T22:30:14.971Z,-5.90
2018-03-01T22:32:48.076Z,-5.90
2018-03-01T22:35:17.143Z,-5.90
2018-03-01T22:37:46.447Z,-5.80
2018-03-01T22:40:15.535Z,-5.80
2018-03-01T22:42:44.598Z,-5.80
2018-03-01T22:45:13.724Z,-5.80
2018-03-01T22:47:42.784Z,-5.80
2018-03-01T22:50:11.939Z,-5.80
2018-03-01T22:52:42.004Z,-5.80
2018-03-01T22:55:11.132Z,-5.80
2018-03-01T22:57:41.664Z,-5.90
2018-03-01T23:00:10.783Z,-5.90
2018-03-01T23:02:40.661Z,-5.90
2018-03-01T23:05:10.645Z,-5.90
2018-03-01T23:07:39.715Z,-5.90
2018-03-01T23:10:08.785Z,-5.90
2018-03-01T23:12:37.892Z,-5.90
2018-03-01T23:15:06.943Z,-5.90
2018-03-01T23:17:36.157Z,-5.90
2018-03-01T23:20:05.206Z,-5.90
2018-03-01T23:22:34.267Z,-5.90
2018-03-01T23:25:04.124Z,-5.90
2018-03-01T23:27:33.214Z,-5.80
2018-03-01T23:30:02.296Z,-5.90
2018-03-01T23:32:31.356Z,-5.80
2018-03-01T23:35:00.431Z,-5.80
2018-03-01T23:37:29.512Z,-5.80
2018-03-01T23:39:58.579Z,-5.80
2018-03-01T23:42:27.660Z,-5.80
2018-03-01T23:44:56.723Z,-5.90
2018-03-01T23:47:25.820Z,-5.80
2018-03-01T23:49:54.872Z,-5.80
2018-03-01T23:52:23.937Z,-5.70
2018-03-01T23:54:53.030Z,-5.70
2018-03-01T23:57:22.847Z,-5.60
2018-03-01T23:59:51.898Z,-5.60
